Terminal Aerodrome Forecast
Issued by NWS

Home | Current Version | Previous Version | Text Only | Print | Product List | Glossary On
Versions: 1 2 3 4 5 6 7 8 9 10 11 12 13 14 15 16
000
FTUS41 KLWX 231435 AAA
TAFMTN
TAF AMD
KMTN 231435Z 2315/2412 10006KT P6SM FEW070 BKN250
     FM231700 13008G16KT P6SM FEW060 BKN250
     FM240000 14007KT P6SM BKN100
     FM240800 10004KT P6SM BKN050=

USA.gov is the U.S. government's official web portal to all federal, state and local government web resources and services.